TimeEDT,TemperatureF,Dew PointF,Humidity,Sea Level PressureIn,VisibilityMPH,Wind Direction,Wind SpeedMPH,Gust SpeedMPH,PrecipitationIn,Events,Conditions,WindDirDegrees,DateUTC
12:01 AM,71.6,71.6,100,29.87,7.0,SSE,6.9,-,0.02,Rain,Heavy Rain,150,2012-09-03 04:01:00
12:09 AM,71.6,71.6,100,29.87,5.0,South,5.8,-,N/A,Rain,Heavy Rain,190,2012-09-03 04:09:00
12:22 AM,71.6,71.6,100,29.87,10.0,SE,3.5,-,N/A,Rain,Light Rain,140,2012-09-03 04:22:00
12:54 AM,73.0,72.0,96,29.83,10.0,South,5.8,-,0.16,,Overcast,170,2012-09-03 04:54:00
1:13 AM,73.4,71.6,94,29.86,10.0,SSE,5.8,-,0.00,Rain,Light Rain,160,2012-09-03 05:13:00
1:23 AM,73.4,71.6,94,29.87,10.0,SSE,6.9,-,0.00,,Overcast,160,2012-09-03 05:23:00
1:52 AM,73.4,71.6,94,29.86,10.0,SSE,8.1,-,0.00,Rain,Light Rain,160,2012-09-03 05:52:00
1:54 AM,73.0,72.0,96,29.84,10.0,SSE,8.1,-,0.00,Rain,Light Rain,160,2012-09-03 05:54:00
2:03 AM,73.4,71.6,94,29.86,10.0,SE,5.8,-,N/A,,Overcast,140,2012-09-03 06:03:00
2:54 AM,73.0,72.0,96,29.83,10.0,SSE,8.1,-,N/A,,Overcast,160,2012-09-03 06:54:00
3:20 AM,73.4,71.6,94,29.85,10.0,South,10.4,-,N/A,,Overcast,170,2012-09-03 07:20:00
3:37 AM,73.4,71.6,94,29.85,10.0,South,9.2,-,0.00,Rain,Light Rain,170,2012-09-03 07:37:00
3:54 AM,73.0,72.0,96,29.83,10.0,South,8.1,-,0.00,,Overcast,170,2012-09-03 07:54:00
4:12 AM,71.6,71.6,100,29.86,9.0,South,8.1,-,0.01,Rain,Light Rain,170,2012-09-03 08:12:00
4:54 AM,72.0,72.0,100,29.83,10.0,South,9.2,-,0.06,,Overcast,170,2012-09-03 08:54:00
5:54 AM,72.0,71.1,97,29.83,10.0,South,6.9,-,0.02,Rain,Light Rain,170,2012-09-03 09:54:00
6:54 AM,72.0,71.1,97,29.84,10.0,South,8.1,-,0.01,,Overcast,170,2012-09-03 10:54:00
7:01 AM,71.6,71.6,100,29.87,10.0,South,6.9,-,N/A,,Overcast,170,2012-09-03 11:01:00
7:31 AM,71.6,71.6,100,29.88,10.0,SSE,9.2,-,N/A,,Overcast,160,2012-09-03 11:31:00
7:54 AM,71.1,71.1,100,29.86,7.0,SSE,8.1,-,0.01,Rain,Light Rain,160,2012-09-03 11:54:00
8:54 AM,72.0,71.1,97,29.87,10.0,South,10.4,-,0.02,,Overcast,180,2012-09-03 12:54:00
9:54 AM,73.0,72.0,96,29.88,10.0,South,8.1,-,0.00,,Overcast,180,2012-09-03 13:54:00
10:54 AM,72.0,71.1,97,29.88,10.0,South,11.5,-,0.00,,Overcast,180,2012-09-03 14:54:00
11:54 AM,72.0,71.1,97,29.89,10.0,South,11.5,-,N/A,,Overcast,180,2012-09-03 15:54:00
12:54 PM,75.0,72.0,90,29.89,10.0,South,8.1,-,N/A,,Overcast,170,2012-09-03 16:54:00
1:07 PM,75.2,71.6,89,29.91,10.0,South,9.2,-,N/A,,Overcast,170,2012-09-03 17:07:00
1:28 PM,75.2,71.6,89,29.92,10.0,SSE,6.9,-,N/A,,Overcast,160,2012-09-03 17:28:00
1:50 PM,78.8,71.6,78,29.91,10.0,SE,8.1,-,N/A,,Overcast,140,2012-09-03 17:50:00
1:54 PM,77.0,72.0,84,29.88,10.0,SE,8.1,-,N/A,,Overcast,140,2012-09-03 17:54:00
2:42 PM,80.6,73.4,79,29.90,10.0,South,10.4,-,N/A,,Overcast,170,2012-09-03 18:42:00
2:54 PM,80.1,72.0,76,29.87,10.0,South,5.8,-,N/A,,Mostly Cloudy,180,2012-09-03 18:54:00
3:41 PM,78.8,71.6,78,29.89,10.0,SSE,8.1,-,N/A,,Overcast,160,2012-09-03 19:41:00
3:54 PM,78.1,72.0,81,29.86,10.0,SSE,8.1,-,0.00,Rain,Light Rain,150,2012-09-03 19:54:00
4:11 PM,78.8,71.6,78,29.88,10.0,South,6.9,-,0.00,,Overcast,190,2012-09-03 20:11:00
4:54 PM,78.1,71.1,79,29.86,10.0,SSW,13.8,-,0.00,,Overcast,210,2012-09-03 20:54:00
5:54 PM,78.1,70.0,76,29.86,10.0,SSE,5.8,-,N/A,,Overcast,160,2012-09-03 21:54:00
6:54 PM,78.1,72.0,81,29.86,10.0,SE,3.5,-,N/A,,Overcast,140,2012-09-03 22:54:00
7:46 PM,75.2,71.6,89,29.88,10.0,SE,8.1,-,N/A,,Overcast,140,2012-09-03 23:46:00
7:54 PM,75.9,71.1,85,29.86,10.0,SE,5.8,-,0.00,Rain,Light Rain,130,2012-09-03 23:54:00
7:57 PM,75.2,71.6,89,29.89,10.0,SSE,4.6,-,0.00,Rain,Light Rain,150,2012-09-03 23:57:00
8:54 PM,73.9,73.0,97,29.88,10.0,Calm,Calm,-,0.00,,Overcast,0,2012-09-04 00:54:00
9:54 PM,75.0,72.0,90,29.90,10.0,ESE,3.5,-,N/A,,Overcast,120,2012-09-04 01:54:00
10:12 PM,73.4,71.6,94,29.92,10.0,Calm,Calm,-,N/A,,Overcast,0,2012-09-04 02:12:00
10:52 PM,73.4,71.6,94,29.92,10.0,SE,3.5,-,N/A,,Scattered Clouds,140,2012-09-04 02:52:00
10:54 PM,73.0,71.1,93,29.90,10.0,SE,3.5,-,N/A,,Partly Cloudy,130,2012-09-04 02:54:00
11:54 PM,72.0,71.1,97,29.91,10.0,Calm,Calm,-,N/A,,Scattered Clouds,0,2012-09-04 03:54:00